Terminal Aerodrome Forecast
Issued by NWS

Home | Current Version | Previous Version | Text Only | Print | Product List | Glossary On
Versions: 1 2 3 4 5 6 7 8 9 10 11 12 13 14 15 16 17 18 19 20 21 22 23 24 25 26 27 28 29 30
000
FTUS41 KOKX 161400 AAA
TAFSWF
TAF AMD
KSWF 161431Z 1615/1718 35013G23KT P6SM SKC
     FM162100 36011KT P6SM SKC
     FM170200 05005KT P6SM SKC
     FM171000 08005KT P6SM SKC
     FM171500 10010KT P6SM FEW030
      AMD NOT SKED=

USA.gov is the U.S. government's official web portal to all federal, state and local government web resources and services.